sensor_id;sensor_type;location;lat;lon;timestamp;P1;durP1;ratioP1;P2;durP2;ratioP2
9938;SDS011;5008;50.656;7.188;2024-03-29T05:01:14;2.00;;;1.00;;
9938;SDS011;5008;50.656;7.188;2024-03-29T05:03:41;1.30;;;0.90;;
9938;SDS011;5008;50.656;7.188;2024-03-29T05:06:07;1.27;;;0.80;;
9938;SDS011;5008;50.656;7.188;2024-03-29T05:08:34;0.90;;;0.60;;
9938;SDS011;5008;50.656;7.188;2024-03-29T05:11:02;1.20;;;0.73;;
9938;SDS011;5008;50.656;7.188;2024-03-29T05:13:29;1.53;;;0.93;;
9938;SDS011;5008;50.656;7.188;2024-03-29T05:15:57;1.27;;;1.13;;
9938;SDS011;5008;50.656;7.188;2024-03-29T05:18:25;2.03;;;1.17;;
9938;SDS011;5008;50.656;7.188;2024-03-29T05:20:52;3.00;;;1.23;;
9938;SDS011;5008;50.656;7.188;2024-03-29T05:23:23;1.73;;;1.00;;
9938;SDS011;5008;50.656;7.188;2024-03-29T05:25:50;1.43;;;1.10;;
9938;SDS011;5008;50.656;7.188;2024-03-29T05:28:17;1.20;;;0.90;;
9938;SDS011;5008;50.656;7.188;2024-03-29T05:30:44;1.00;;;0.90;;
9938;SDS011;5008;50.656;7.188;2024-03-29T05:33:11;1.63;;;1.17;;
9938;SDS011;5008;50.656;7.188;2024-03-29T05:35:39;1.73;;;0.80;;
9938;SDS011;5008;50.656;7.188;2024-03-29T05:38:06;1.03;;;0.80;;
9938;SDS011;5008;50.656;7.188;2024-03-29T05:40:33;1.37;;;0.97;;
9938;SDS011;5008;50.656;7.188;2024-03-29T05:43:00;1.10;;;0.67;;
9938;SDS011;5008;50.656;7.188;2024-03-29T05:45:27;2.13;;;1.13;;
9938;SDS011;5008;50.656;7.188;2024-03-29T05:47:58;2.17;;;1.10;;
9938;SDS011;5008;50.656;7.188;2024-03-29T05:50:25;1.37;;;0.73;;
9938;SDS011;5008;50.656;7.188;2024-03-29T05:52:53;1.40;;;0.70;;
9938;SDS011;5008;50.656;7.188;2024-03-29T05:55:20;1.97;;;0.90;;
9938;SDS011;5008;50.656;7.188;2024-03-29T05:57:47;1.10;;;1.00;;
9938;SDS011;5008;50.656;7.188;2024-03-29T06:00:22;1.57;;;0.90;;
9938;SDS011;5008;50.656;7.188;2024-03-29T06:02:49;2.63;;;1.17;;
9938;SDS011;5008;50.656;7.188;2024-03-29T06:05:16;1.87;;;1.00;;
9938;SDS011;5008;50.656;7.188;2024-03-29T06:07:43;1.00;;;0.90;;
9938;SDS011;5008;50.656;7.188;2024-03-29T06:10:11;1.07;;;0.93;;
9938;SDS011;5008;50.656;7.188;2024-03-29T06:12:39;2.80;;;1.27;;
9938;SDS011;5008;50.656;7.188;2024-03-29T06:15:06;1.70;;;0.90;;
9938;SDS011;5008;50.656;7.188;2024-03-29T06:17:52;1.50;;;1.00;;
9938;SDS011;5008;50.656;7.188;2024-03-29T06:20:19;1.60;;;0.80;;
9938;SDS011;5008;50.656;7.188;2024-03-29T06:22:46;2.07;;;1.10;;
9938;SDS011;5008;50.656;7.188;2024-03-29T06:25:14;1.20;;;0.83;;
9938;SDS011;5008;50.656;7.188;2024-03-29T06:27:41;1.37;;;1.03;;
9938;SDS011;5008;50.656;7.188;2024-03-29T06:30:12;1.10;;;0.93;;
9938;SDS011;5008;50.656;7.188;2024-03-29T06:32:41;1.00;;;0.90;;
9938;SDS011;5008;50.656;7.188;2024-03-29T06:35:08;2.40;;;0.90;;
9938;SDS011;5008;50.656;7.188;2024-03-29T06:37:35;1.73;;;1.00;;
9938;SDS011;5008;50.656;7.188;2024-03-29T06:40:02;1.50;;;1.10;;
9938;SDS011;5008;50.656;7.188;2024-03-29T06:42:30;0.93;;;0.83;;
9938;SDS011;5008;50.656;7.188;2024-03-29T06:44:58;2.27;;;1.17;;
9938;SDS011;5008;50.656;7.188;2024-03-29T06:47:27;1.10;;;0.90;;
9938;SDS011;5008;50.656;7.188;2024-03-29T06:49:56;2.40;;;1.10;;
9938;SDS011;5008;50.656;7.188;2024-03-29T06:52:23;1.07;;;0.90;;
9938;SDS011;5008;50.656;7.188;2024-03-29T06:54:50;1.20;;;1.10;;
9938;SDS011;5008;50.656;7.188;2024-03-29T06:57:16;0.80;;;0.80;;
9938;SDS011;5008;50.656;7.188;2024-03-29T06:59:52;2.33;;;1.10;;
9938;SDS011;5008;50.656;7.188;2024-03-29T07:02:19;1.67;;;0.90;;
9938;SDS011;5008;50.656;7.188;2024-03-29T07:04:46;1.10;;;1.00;;
9938;SDS011;5008;50.656;7.188;2024-03-29T07:07:12;1.27;;;0.93;;
9938;SDS011;5008;50.656;7.188;2024-03-29T07:09:39;1.20;;;0.97;;
9938;SDS011;5008;50.656;7.188;2024-03-29T07:12:08;0.77;;;0.77;;
9938;SDS011;5008;50.656;7.188;2024-03-29T07:14:35;2.23;;;0.90;;
9938;SDS011;5008;50.656;7.188;2024-03-29T07:17:04;0.80;;;0.80;;
9938;SDS011;5008;50.656;7.188;2024-03-29T07:19:31;1.43;;;0.80;;
9938;SDS011;5008;50.656;7.188;2024-03-29T07:21:58;0.83;;;0.80;;
9938;SDS011;5008;50.656;7.188;2024-03-29T07:24:24;1.27;;;0.70;;
9938;SDS011;5008;50.656;7.188;2024-03-29T07:26:52;1.17;;;0.90;;
9938;SDS011;5008;50.656;7.188;2024-03-29T07:29:19;1.67;;;0.90;;
9938;SDS011;5008;50.656;7.188;2024-03-29T07:31:47;0.77;;;0.70;;
9938;SDS011;5008;50.656;7.188;2024-03-29T07:34:15;1.60;;;0.67;;
9938;SDS011;5008;50.656;7.188;2024-03-29T07:36:42;0.93;;;0.77;;
9938;SDS011;5008;50.656;7.188;2024-03-29T07:39:08;0.93;;;0.90;;
9938;SDS011;5008;50.656;7.188;2024-03-29T07:41:35;0.93;;;0.87;;
9938;SDS011;5008;50.656;7.188;2024-03-29T07:44:05;1.53;;;1.10;;
9938;SDS011;5008;50.656;7.188;2024-03-29T07:46:34;2.53;;;1.00;;
9938;SDS011;5008;50.656;7.188;2024-03-29T07:49:02;0.83;;;0.70;;
9938;SDS011;5008;50.656;7.188;2024-03-29T07:51:31;1.80;;;1.00;;
9938;SDS011;5008;50.656;7.188;2024-03-29T07:53:58;2.27;;;1.03;;
9938;SDS011;5008;50.656;7.188;2024-03-29T07:56:24;0.70;;;0.50;;
9938;SDS011;5008;50.656;7.188;2024-03-29T07:58:51;1.77;;;0.70;;
9938;SDS011;5008;50.656;7.188;2024-03-29T08:01:19;1.17;;;0.73;;
9938;SDS011;5008;50.656;7.188;2024-03-29T08:03:46;1.97;;;1.20;;
9938;SDS011;5008;50.656;7.188;2024-03-29T08:06:17;0.80;;;0.80;;
9938;SDS011;5008;50.656;7.188;2024-03-29T08:08:45;1.30;;;0.60;;
9938;SDS011;5008;50.656;7.188;2024-03-29T08:11:12;0.77;;;0.77;;
9938;SDS011;5008;50.656;7.188;2024-03-29T08:16:07;2.50;;;1.00;;
9938;SDS011;5008;50.656;7.188;2024-03-29T08:18:35;0.73;;;0.73;;
9938;SDS011;5008;50.656;7.188;2024-03-29T08:21:02;0.70;;;0.70;;
9938;SDS011;5008;50.656;7.188;2024-03-29T08:23:35;1.30;;;0.70;;
9938;SDS011;5008;50.656;7.188;2024-03-29T08:26:05;0.83;;;0.63;;
9938;SDS011;5008;50.656;7.188;2024-03-29T08:28:32;1.47;;;0.67;;
9938;SDS011;5008;50.656;7.188;2024-03-29T08:31:00;2.03;;;0.90;;
9938;SDS011;5008;50.656;7.188;2024-03-29T08:33:29;0.57;;;0.57;;
9938;SDS011;5008;50.656;7.188;2024-03-29T08:35:56;1.83;;;0.80;;
9938;SDS011;5008;50.656;7.188;2024-03-29T08:38:23;1.60;;;0.80;;
9938;SDS011;5008;50.656;7.188;2024-03-29T08:40:50;0.50;;;0.50;;
9938;SDS011;5008;50.656;7.188;2024-03-29T08:43:18;1.47;;;0.70;;
9938;SDS011;5008;50.656;7.188;2024-03-29T08:45:50;0.70;;;0.70;;
9938;SDS011;5008;50.656;7.188;2024-03-29T08:48:17;1.17;;;0.70;;
9938;SDS011;5008;50.656;7.188;2024-03-29T08:50:44;0.60;;;0.50;;
9938;SDS011;5008;50.656;7.188;2024-03-29T08:53:11;0.57;;;0.53;;
9938;SDS011;5008;50.656;7.188;2024-03-29T08:55:38;0.60;;;0.60;;
9938;SDS011;5008;50.656;7.188;2024-03-29T08:58:05;0.47;;;0.47;;
9938;SDS011;5008;50.656;7.188;2024-03-29T09:00:33;0.70;;;0.57;;
9938;SDS011;5008;50.656;7.188;2024-03-29T09:03:00;0.60;;;0.57;;
9938;SDS011;5008;50.656;7.188;2024-03-29T09:05:28;0.50;;;0.50;;
9938;SDS011;5008;50.656;7.188;2024-03-29T09:07:55;2.10;;;0.77;;
9938;SDS011;5008;50.656;7.188;2024-03-29T09:10:22;1.47;;;0.70;;
9938;SDS011;5008;50.656;7.188;2024-03-29T09:12:51;0.50;;;0.50;;
9938;SDS011;5008;50.656;7.188;2024-03-29T09:15:18;0.63;;;0.50;;
9938;SDS011;5008;50.656;7.188;2024-03-29T09:17:47;0.57;;;0.57;;
9938;SDS011;5008;50.656;7.188;2024-03-29T09:20:14;0.73;;;0.50;;
9938;SDS011;5008;50.656;7.188;2024-03-29T09:22:40;0.80;;;0.77;;
9938;SDS011;5008;50.656;7.188;2024-03-29T09:25:07;0.87;;;0.60;;
9938;SDS011;5008;50.656;7.188;2024-03-29T09:27:38;0.70;;;0.60;;
9938;SDS011;5008;50.656;7.188;2024-03-29T09:30:08;2.50;;;0.60;;
9938;SDS011;5008;50.656;7.188;2024-03-29T09:32:36;1.00;;;0.50;;
9938;SDS011;5008;50.656;7.188;2024-03-29T09:35:04;0.70;;;0.70;;
9938;SDS011;5008;50.656;7.188;2024-03-29T09:37:31;0.70;;;0.70;;
9938;SDS011;5008;50.656;7.188;2024-03-29T09:40:01;0.33;;;0.20;;
9938;SDS011;5008;50.656;7.188;2024-03-29T09:42:31;0.63;;;0.50;;
9938;SDS011;5008;50.656;7.188;2024-03-29T09:44:59;0.90;;;0.70;;
9938;SDS011;5008;50.656;7.188;2024-03-29T09:47:29;0.60;;;0.60;;
9938;SDS011;5008;50.656;7.188;2024-03-29T09:49:58;1.03;;;0.80;;
9938;SDS011;5008;50.656;7.188;2024-03-29T09:52:27;0.67;;;0.67;;
9938;SDS011;5008;50.656;7.188;2024-03-29T09:54:54;0.70;;;0.70;;
9938;SDS011;5008;50.656;7.188;2024-03-29T09:57:22;0.77;;;0.67;;
9938;SDS011;5008;50.656;7.188;2024-03-29T09:59:54;1.43;;;1.33;;
9938;SDS011;5008;50.656;7.188;2024-03-29T10:02:22;0.80;;;0.80;;
9938;SDS011;5008;50.656;7.188;2024-03-29T10:04:53;0.60;;;0.60;;
9938;SDS011;5008;50.656;7.188;2024-03-29T10:07:22;0.97;;;0.63;;
9938;SDS011;5008;50.656;7.188;2024-03-29T10:09:52;1.37;;;0.73;;
9938;SDS011;5008;50.656;7.188;2024-03-29T10:12:20;0.80;;;0.73;;
9938;SDS011;5008;50.656;7.188;2024-03-29T10:14:47;0.87;;;0.70;;
9938;SDS011;5008;50.656;7.188;2024-03-29T10:17:17;0.70;;;0.70;;
9938;SDS011;5008;50.656;7.188;2024-03-29T10:19:44;0.97;;;0.90;;
9938;SDS011;5008;50.656;7.188;2024-03-29T10:22:11;0.90;;;0.80;;
9938;SDS011;5008;50.656;7.188;2024-03-29T10:24:38;1.20;;;0.80;;
9938;SDS011;5008;50.656;7.188;2024-03-29T10:27:06;0.87;;;0.87;;
9938;SDS011;5008;50.656;7.188;2024-03-29T10:29:33;0.50;;;0.50;;
9938;SDS011;5008;50.656;7.188;2024-03-29T10:32:00;0.70;;;0.67;;
9938;SDS011;5008;50.656;7.188;2024-03-29T10:34:27;0.67;;;0.67;;
9938;SDS011;5008;50.656;7.188;2024-03-29T10:36:59;1.17;;;0.80;;
9938;SDS011;5008;50.656;7.188;2024-03-29T10:39:28;1.00;;;0.60;;
9938;SDS011;5008;50.656;7.188;2024-03-29T10:41:55;1.00;;;0.83;;
9938;SDS011;5008;50.656;7.188;2024-03-29T10:44:24;0.83;;;0.70;;
9938;SDS011;5008;50.656;7.188;2024-03-29T10:46:52;1.00;;;0.77;;
9938;SDS011;5008;50.656;7.188;2024-03-29T10:49:21;0.60;;;0.60;;
9938;SDS011;5008;50.656;7.188;2024-03-29T10:51:49;1.00;;;0.90;;
9938;SDS011;5008;50.656;7.188;2024-03-29T10:54:18;0.70;;;0.70;;
9938;SDS011;5008;50.656;7.188;2024-03-29T10:56:47;1.10;;;0.90;;
9938;SDS011;5008;50.656;7.188;2024-03-29T10:59:22;2.50;;;1.77;;
9938;SDS011;5008;50.656;7.188;2024-03-29T11:02:00;0.77;;;0.70;;
9938;SDS011;5008;50.656;7.188;2024-03-29T11:04:33;1.17;;;0.90;;
9938;SDS011;5008;50.656;7.188;2024-03-29T11:07:04;1.00;;;1.00;;
9938;SDS011;5008;50.656;7.188;2024-03-29T11:09:36;0.73;;;0.60;;
9938;SDS011;5008;50.656;7.188;2024-03-29T11:12:04;0.83;;;0.70;;
9938;SDS011;5008;50.656;7.188;2024-03-29T11:14:37;0.63;;;0.63;;
9938;SDS011;5008;50.656;7.188;2024-03-29T11:17:09;1.07;;;0.70;;
9938;SDS011;5008;50.656;7.188;2024-03-29T11:19:37;0.87;;;0.73;;
9938;SDS011;5008;50.656;7.188;2024-03-29T11:22:05;1.50;;;0.80;;
9938;SDS011;5008;50.656;7.188;2024-03-29T11:24:32;0.90;;;0.70;;
9938;SDS011;5008;50.656;7.188;2024-03-29T11:27:06;1.20;;;0.83;;
9938;SDS011;5008;50.656;7.188;2024-03-29T11:29:33;0.93;;;0.80;;
9938;SDS011;5008;50.656;7.188;2024-03-29T11:32:07;1.50;;;1.33;;
9938;SDS011;5008;50.656;7.188;2024-03-29T11:34:33;0.60;;;0.60;;
9938;SDS011;5008;50.656;7.188;2024-03-29T11:37:06;1.53;;;1.07;;
9938;SDS011;5008;50.656;7.188;2024-03-29T11:39:33;1.50;;;1.40;;
9938;SDS011;5008;50.656;7.188;2024-03-29T11:42:01;1.30;;;0.90;;
9938;SDS011;5008;50.656;7.188;2024-03-29T11:44:28;1.10;;;1.00;;
9938;SDS011;5008;50.656;7.188;2024-03-29T11:46:55;0.97;;;0.97;;
9938;SDS011;5008;50.656;7.188;2024-03-29T11:49:25;0.90;;;0.90;;
9938;SDS011;5008;50.656;7.188;2024-03-29T11:52:01;1.20;;;1.10;;
9938;SDS011;5008;50.656;7.188;2024-03-29T11:54:35;2.10;;;1.57;;
9938;SDS011;5008;50.656;7.188;2024-03-29T11:57:03;0.90;;;0.90;;
9938;SDS011;5008;50.656;7.188;2024-03-29T11:59:30;0.83;;;0.83;;
9938;SDS011;5008;50.656;7.188;2024-03-29T12:01:57;0.93;;;0.90;;
9938;SDS011;5008;50.656;7.188;2024-03-29T12:04:23;1.00;;;1.00;;
9938;SDS011;5008;50.656;7.188;2024-03-29T12:06:53;0.77;;;0.70;;
9938;SDS011;5008;50.656;7.188;2024-03-29T12:09:20;2.23;;;1.00;;
9938;SDS011;5008;50.656;7.188;2024-03-29T12:11:47;1.33;;;1.10;;
9938;SDS011;5008;50.656;7.188;2024-03-29T12:14:15;3.40;;;1.10;;
9938;SDS011;5008;50.656;7.188;2024-03-29T12:16:43;0.60;;;0.60;;
9938;SDS011;5008;50.656;7.188;2024-03-29T12:19:10;1.93;;;0.90;;
9938;SDS011;5008;50.656;7.188;2024-03-29T12:21:49;1.40;;;0.93;;
9938;SDS011;5008;50.656;7.188;2024-03-29T12:24:17;1.30;;;1.20;;
9938;SDS011;5008;50.656;7.188;2024-03-29T12:26:43;2.80;;;2.60;;
9938;SDS011;5008;50.656;7.188;2024-03-29T12:29:10;1.20;;;1.03;;
9938;SDS011;5008;50.656;7.188;2024-03-29T12:31:37;1.43;;;1.30;;
9938;SDS011;5008;50.656;7.188;2024-03-29T12:34:04;0.60;;;0.60;;
9938;SDS011;5008;50.656;7.188;2024-03-29T12:36:32;0.73;;;0.70;;
9938;SDS011;5008;50.656;7.188;2024-03-29T12:39:00;0.60;;;0.60;;
9938;SDS011;5008;50.656;7.188;2024-03-29T12:41:28;0.70;;;0.70;;
9938;SDS011;5008;50.656;7.188;2024-03-29T12:43:55;0.70;;;0.70;;
9938;SDS011;5008;50.656;7.188;2024-03-29T12:46:28;0.65;;;0.60;;
9938;SDS011;5008;50.656;7.188;2024-03-29T12:48:59;1.10;;;0.90;;
9938;SDS011;5008;50.656;7.188;2024-03-29T12:51:26;1.37;;;1.27;;
9938;SDS011;5008;50.656;7.188;2024-03-29T12:53:54;0.43;;;0.43;;
9938;SDS011;5008;50.656;7.188;2024-03-29T12:56:26;0.37;;;0.37;;
9938;SDS011;5008;50.656;7.188;2024-03-29T12:58:53;0.67;;;0.67;;
9938;SDS011;5008;50.656;7.188;2024-03-29T13:01:20;1.23;;;0.80;;
9938;SDS011;5008;50.656;7.188;2024-03-29T13:03:47;0.50;;;0.50;;
9938;SDS011;5008;50.656;7.188;2024-03-29T13:06:14;1.70;;;1.60;;
9938;SDS011;5008;50.656;7.188;2024-03-29T13:08:41;0.60;;;0.60;;
9938;SDS011;5008;50.656;7.188;2024-03-29T13:11:08;1.13;;;0.57;;
9938;SDS011;5008;50.656;7.188;2024-03-29T13:13:37;1.27;;;1.20;;
9938;SDS011;5008;50.656;7.188;2024-03-29T13:16:04;0.67;;;0.50;;
9938;SDS011;5008;50.656;7.188;2024-03-29T13:18:31;2.90;;;2.70;;
9938;SDS011;5008;50.656;7.188;2024-03-29T13:21:05;2.80;;;2.60;;
9938;SDS011;5008;50.656;7.188;2024-03-29T13:23:32;2.17;;;1.00;;
9938;SDS011;5008;50.656;7.188;2024-03-29T13:25:59;1.20;;;1.00;;
9938;SDS011;5008;50.656;7.188;2024-03-29T13:28:26;1.90;;;1.70;;
9938;SDS011;5008;50.656;7.188;2024-03-29T13:30:54;4.10;;;3.37;;
9938;SDS011;5008;50.656;7.188;2024-03-29T13:33:22;1.48;;;1.35;;
9938;SDS011;5008;50.656;7.188;2024-03-29T13:35:50;0.93;;;0.83;;
9938;SDS011;5008;50.656;7.188;2024-03-29T13:38:19;2.35;;;2.15;;
9938;SDS011;5008;50.656;7.188;2024-03-29T13:40:48;0.68;;;0.55;;
9938;SDS011;5008;50.656;7.188;2024-03-29T13:43:15;2.80;;;2.20;;
9938;SDS011;5008;50.656;7.188;2024-03-29T13:45:42;3.00;;;2.70;;
9938;SDS011;5008;50.656;7.188;2024-03-29T13:48:10;1.90;;;1.80;;
9938;SDS011;5008;50.656;7.188;2024-03-29T13:50:37;2.15;;;2.05;;
9938;SDS011;5008;50.656;7.188;2024-03-29T13:53:04;0.83;;;0.50;;
9938;SDS011;5008;50.656;7.188;2024-03-29T13:55:31;1.10;;;0.90;;
9938;SDS011;5008;50.656;7.188;2024-03-29T13:57:58;0.50;;;0.50;;
9938;SDS011;5008;50.656;7.188;2024-03-29T14:00:25;1.20;;;1.20;;
9938;SDS011;5008;50.656;7.188;2024-03-29T14:02:52;0.63;;;0.63;;
9938;SDS011;5008;50.656;7.188;2024-03-29T14:05:20;2.45;;;1.13;;
9938;SDS011;5008;50.656;7.188;2024-03-29T14:07:47;0.95;;;0.60;;
9938;SDS011;5008;50.656;7.188;2024-03-29T14:10:15;1.20;;;1.10;;
9938;SDS011;5008;50.656;7.188;2024-03-29T14:12:43;1.30;;;0.57;;
9938;SDS011;5008;50.656;7.188;2024-03-29T14:15:10;1.33;;;1.15;;
9938;SDS011;5008;50.656;7.188;2024-03-29T14:17:37;1.30;;;1.30;;
9938;SDS011;5008;50.656;7.188;2024-03-29T14:20:04;0.50;;;0.50;;
9938;SDS011;5008;50.656;7.188;2024-03-29T14:22:33;0.70;;;0.65;;
9938;SDS011;5008;50.656;7.188;2024-03-29T14:25:01;0.40;;;0.40;;
9938;SDS011;5008;50.656;7.188;2024-03-29T14:27:28;1.13;;;0.75;;
9938;SDS011;5008;50.656;7.188;2024-03-29T14:29:56;0.32;;;0.32;;
9938;SDS011;5008;50.656;7.188;2024-03-29T14:32:22;0.75;;;0.68;;
9938;SDS011;5008;50.656;7.188;2024-03-29T14:34:49;0.40;;;0.38;;
9938;SDS011;5008;50.656;7.188;2024-03-29T14:37:17;0.80;;;0.50;;
9938;SDS011;5008;50.656;7.188;2024-03-29T14:39:45;0.80;;;0.60;;
9938;SDS011;5008;50.656;7.188;2024-03-29T14:42:12;0.63;;;0.55;;
9938;SDS011;5008;50.656;7.188;2024-03-29T14:44:42;1.17;;;0.80;;
9938;SDS011;5008;50.656;7.188;2024-03-29T14:47:09;0.93;;;0.63;;
9938;SDS011;5008;50.656;7.188;2024-03-29T14:49:36;1.95;;;0.40;;
9938;SDS011;5008;50.656;7.188;2024-03-29T14:52:04;0.70;;;0.63;;
9938;SDS011;5008;50.656;7.188;2024-03-29T14:54:31;1.60;;;1.50;;
9938;SDS011;5008;50.656;7.188;2024-03-29T14:56:59;0.50;;;0.50;;
9938;SDS011;5008;50.656;7.188;2024-03-29T14:59:26;1.08;;;0.60;;
9938;SDS011;5008;50.656;7.188;2024-03-29T15:01:55;0.93;;;0.90;;
9938;SDS011;5008;50.656;7.188;2024-03-29T15:04:22;0.60;;;0.60;;
9938;SDS011;5008;50.656;7.188;2024-03-29T15:06:49;0.63;;;0.40;;
9938;SDS011;5008;50.656;7.188;2024-03-29T15:09:25;1.40;;;0.90;;
9938;SDS011;5008;50.656;7.188;2024-03-29T15:11:52;0.57;;;0.55;;
9938;SDS011;5008;50.656;7.188;2024-03-29T15:14:20;1.08;;;0.98;;
9938;SDS011;5008;50.656;7.188;2024-03-29T15:16:47;1.40;;;1.30;;
9938;SDS011;5008;50.656;7.188;2024-03-29T15:19:15;0.27;;;0.27;;
9938;SDS011;5008;50.656;7.188;2024-03-29T15:21:42;2.20;;;0.37;;
9938;SDS011;5008;50.656;7.188;2024-03-29T15:24:08;0.83;;;0.53;;
9938;SDS011;5008;50.656;7.188;2024-03-29T15:26:35;0.67;;;0.60;;
9938;SDS011;5008;50.656;7.188;2024-03-29T15:29:02;1.43;;;0.87;;
9938;SDS011;5008;50.656;7.188;2024-03-29T15:31:34;0.40;;;0.40;;
9938;SDS011;5008;50.656;7.188;2024-03-29T15:34:01;0.90;;;0.90;;
9938;SDS011;5008;50.656;7.188;2024-03-29T15:36:29;0.30;;;0.30;;
9938;SDS011;5008;50.656;7.188;2024-03-29T15:38:56;0.90;;;0.90;;
9938;SDS011;5008;50.656;7.188;2024-03-29T15:41:30;0.57;;;0.57;;
9938;SDS011;5008;50.656;7.188;2024-03-29T15:43:58;0.90;;;0.90;;
9938;SDS011;5008;50.656;7.188;2024-03-29T15:46:25;0.97;;;0.90;;
9938;SDS011;5008;50.656;7.188;2024-03-29T15:48:53;0.70;;;0.70;;
9938;SDS011;5008;50.656;7.188;2024-03-29T15:51:20;0.40;;;0.33;;
9938;SDS011;5008;50.656;7.188;2024-03-29T15:54:05;1.70;;;1.60;;
9938;SDS011;5008;50.656;7.188;2024-03-29T15:56:36;0.90;;;0.90;;
9938;SDS011;5008;50.656;7.188;2024-03-29T15:59:03;0.40;;;0.40;;
9938;SDS011;5008;50.656;7.188;2024-03-29T16:01:29;0.97;;;0.60;;
9938;SDS011;5008;50.656;7.188;2024-03-29T16:03:58;0.30;;;0.30;;
9938;SDS011;5008;50.656;7.188;2024-03-29T16:06:24;0.30;;;0.30;;
9938;SDS011;5008;50.656;7.188;2024-03-29T16:08:51;0.93;;;0.50;;
9938;SDS011;5008;50.656;7.188;2024-03-29T16:11:18;1.00;;;1.00;;
9938;SDS011;5008;50.656;7.188;2024-03-29T16:13:45;0.33;;;0.30;;
9938;SDS011;5008;50.656;7.188;2024-03-29T16:16:12;0.43;;;0.43;;
9938;SDS011;5008;50.656;7.188;2024-03-29T16:18:37;0.40;;;0.40;;
9938;SDS011;5008;50.656;7.188;2024-03-29T16:21:06;0.50;;;0.50;;
9938;SDS011;5008;50.656;7.188;2024-03-29T16:23:31;1.27;;;0.80;;
9938;SDS011;5008;50.656;7.188;2024-03-29T16:25:59;0.60;;;0.60;;
9938;SDS011;5008;50.656;7.188;2024-03-29T16:28:25;0.90;;;0.63;;
9938;SDS011;5008;50.656;7.188;2024-03-29T16:30:53;1.10;;;0.50;;
9938;SDS011;5008;50.656;7.188;2024-03-29T16:33:19;1.23;;;0.63;;
9938;SDS011;5008;50.656;7.188;2024-03-29T16:35:46;0.90;;;0.77;;
9938;SDS011;5008;50.656;7.188;2024-03-29T16:38:26;3.67;;;3.37;;
9938;SDS011;5008;50.656;7.188;2024-03-29T16:40:53;3.33;;;2.63;;
9938;SDS011;5008;50.656;7.188;2024-03-29T16:43:19;2.67;;;2.47;;
9938;SDS011;5008;50.656;7.188;2024-03-29T16:45:45;1.07;;;1.00;;
9938;SDS011;5008;50.656;7.188;2024-03-29T16:48:11;4.00;;;3.60;;
9938;SDS011;5008;50.656;7.188;2024-03-29T16:50:38;4.37;;;3.97;;
9938;SDS011;5008;50.656;7.188;2024-03-29T16:53:05;2.97;;;2.40;;
9938;SDS011;5008;50.656;7.188;2024-03-29T16:55:33;3.13;;;2.87;;
9938;SDS011;5008;50.656;7.188;2024-03-29T16:58:01;4.63;;;4.27;;
9938;SDS011;5008;50.656;7.188;2024-03-29T17:00:29;3.27;;;2.97;;
9938;SDS011;5008;50.656;7.188;2024-03-29T17:03:05;3.30;;;2.17;;
9938;SDS011;5008;50.656;7.188;2024-03-29T17:05:34;1.83;;;1.40;;
9938;SDS011;5008;50.656;7.188;2024-03-29T17:07:59;3.47;;;3.27;;
9938;SDS011;5008;50.656;7.188;2024-03-29T17:10:26;1.87;;;1.77;;
9938;SDS011;5008;50.656;7.188;2024-03-29T17:12:53;2.43;;;2.00;;
9938;SDS011;5008;50.656;7.188;2024-03-29T17:15:20;2.10;;;2.00;;
9938;SDS011;5008;50.656;7.188;2024-03-29T17:17:46;3.60;;;3.20;;
9938;SDS011;5008;50.656;7.188;2024-03-29T17:20:13;3.53;;;3.23;;
9938;SDS011;5008;50.656;7.188;2024-03-29T17:22:39;2.57;;;2.20;;
9938;SDS011;5008;50.656;7.188;2024-03-29T17:25:07;2.23;;;2.03;;
9938;SDS011;5008;50.656;7.188;2024-03-29T17:27:36;2.70;;;2.30;;
9938;SDS011;5008;50.656;7.188;2024-03-29T17:30:05;2.43;;;2.30;;
9938;SDS011;5008;50.656;7.188;2024-03-29T17:32:33;2.90;;;1.77;;
9938;SDS011;5008;50.656;7.188;2024-03-29T17:35:00;5.20;;;4.70;;
9938;SDS011;5008;50.656;7.188;2024-03-29T17:37:27;9.97;;;9.27;;
9938;SDS011;5008;50.656;7.188;2024-03-29T17:39:54;6.20;;;5.80;;
9938;SDS011;5008;50.656;7.188;2024-03-29T17:42:20;4.60;;;4.20;;
9938;SDS011;5008;50.656;7.188;2024-03-29T17:44:47;2.30;;;2.13;;
9938;SDS011;5008;50.656;7.188;2024-03-29T17:47:15;4.50;;;4.10;;
9938;SDS011;5008;50.656;7.188;2024-03-29T17:49:42;3.80;;;3.50;;
9938;SDS011;5008;50.656;7.188;2024-03-29T17:52:08;1.53;;;1.43;;
9938;SDS011;5008;50.656;7.188;2024-03-29T17:54:35;2.03;;;1.90;;
9938;SDS011;5008;50.656;7.188;2024-03-29T17:57:01;11.03;;;9.93;;
9938;SDS011;5008;50.656;7.188;2024-03-29T17:59:28;11.23;;;9.90;;
9938;SDS011;5008;50.656;7.188;2024-03-29T18:01:54;12.53;;;9.53;;
9938;SDS011;5008;50.656;7.188;2024-03-29T18:04:22;1.67;;;1.57;;
9938;SDS011;5008;50.656;7.188;2024-03-29T18:06:48;6.03;;;5.43;;
9938;SDS011;5008;50.656;7.188;2024-03-29T18:09:15;1.50;;;1.40;;
9938;SDS011;5008;50.656;7.188;2024-03-29T18:11:41;2.83;;;2.50;;
9938;SDS011;5008;50.656;7.188;2024-03-29T18:14:08;2.57;;;2.27;;
9938;SDS011;5008;50.656;7.188;2024-03-29T18:16:34;2.03;;;1.83;;
9938;SDS011;5008;50.656;7.188;2024-03-29T18:19:01;1.60;;;1.50;;
9938;SDS011;5008;50.656;7.188;2024-03-29T18:21:30;12.67;;;9.87;;
9938;SDS011;5008;50.656;7.188;2024-03-29T18:23:57;11.47;;;8.53;;
9938;SDS011;5008;50.656;7.188;2024-03-29T18:26:23;18.03;;;14.37;;
9938;SDS011;5008;50.656;7.188;2024-03-29T18:28:50;4.63;;;3.27;;
9938;SDS011;5008;50.656;7.188;2024-03-29T18:31:16;1.83;;;1.50;;
9938;SDS011;5008;50.656;7.188;2024-03-29T18:33:43;2.37;;;1.90;;
9938;SDS011;5008;50.656;7.188;2024-03-29T18:36:11;1.57;;;1.30;;
9938;SDS011;5008;50.656;7.188;2024-03-29T18:38:39;2.17;;;1.80;;
9938;SDS011;5008;50.656;7.188;2024-03-29T18:41:06;1.47;;;1.20;;
9938;SDS011;5008;50.656;7.188;2024-03-29T18:43:35;1.03;;;1.03;;
9938;SDS011;5008;50.656;7.188;2024-03-29T18:46:04;1.70;;;1.17;;
9938;SDS011;5008;50.656;7.188;2024-03-29T18:48:32;1.13;;;1.03;;
9938;SDS011;5008;50.656;7.188;2024-03-29T18:50:58;2.83;;;1.37;;
9938;SDS011;5008;50.656;7.188;2024-03-29T18:53:37;1.77;;;1.63;;
9938;SDS011;5008;50.656;7.188;2024-03-29T18:56:06;1.33;;;1.13;;
9938;SDS011;5008;50.656;7.188;2024-03-29T18:58:33;1.73;;;1.50;;
9938;SDS011;5008;50.656;7.188;2024-03-29T19:03:58;1.90;;;1.70;;
9938;SDS011;5008;50.656;7.188;2024-03-29T19:06:24;1.50;;;1.40;;
9938;SDS011;5008;50.656;7.188;2024-03-29T19:08:52;2.60;;;1.63;;
9938;SDS011;5008;50.656;7.188;2024-03-29T19:11:19;3.40;;;3.20;;
9938;SDS011;5008;50.656;7.188;2024-03-29T19:13:49;2.00;;;1.90;;
9938;SDS011;5008;50.656;7.188;2024-03-29T19:16:15;2.27;;;2.07;;
9938;SDS011;5008;50.656;7.188;2024-03-29T19:18:42;2.10;;;1.90;;
9938;SDS011;5008;50.656;7.188;2024-03-29T19:21:07;1.90;;;1.80;;
9938;SDS011;5008;50.656;7.188;2024-03-29T19:23:35;2.00;;;1.90;;
9938;SDS011;5008;50.656;7.188;2024-03-29T19:26:01;2.57;;;1.80;;
9938;SDS011;5008;50.656;7.188;2024-03-29T19:28:30;2.00;;;1.87;;
9938;SDS011;5008;50.656;7.188;2024-03-29T19:30:56;2.20;;;2.03;;
9938;SDS011;5008;50.656;7.188;2024-03-29T19:33:23;1.70;;;1.60;;
9938;SDS011;5008;50.656;7.188;2024-03-29T19:35:49;1.90;;;1.60;;
9938;SDS011;5008;50.656;7.188;2024-03-29T19:38:16;1.83;;;1.60;;
9938;SDS011;5008;50.656;7.188;2024-03-29T19:40:45;1.57;;;1.47;;
9938;SDS011;5008;50.656;7.188;2024-03-29T19:43:12;3.40;;;1.50;;
9938;SDS011;5008;50.656;7.188;2024-03-29T19:45:39;1.80;;;1.47;;
9938;SDS011;5008;50.656;7.188;2024-03-29T19:48:06;1.73;;;1.30;;
9938;SDS011;5008;50.656;7.188;2024-03-29T19:50:40;1.60;;;1.50;;
9938;SDS011;5008;50.656;7.188;2024-03-29T19:53:07;1.80;;;1.70;;
9938;SDS011;5008;50.656;7.188;2024-03-29T19:55:33;2.67;;;1.50;;
9938;SDS011;5008;50.656;7.188;2024-03-29T19:58:00;1.83;;;1.30;;
9938;SDS011;5008;50.656;7.188;2024-03-29T20:00:26;2.27;;;1.70;;
9938;SDS011;5008;50.656;7.188;2024-03-29T20:02:54;1.87;;;1.50;;
9938;SDS011;5008;50.656;7.188;2024-03-29T20:05:20;1.53;;;1.40;;
9938;SDS011;5008;50.656;7.188;2024-03-29T20:07:47;1.20;;;1.10;;
9938;SDS011;5008;50.656;7.188;2024-03-29T20:10:13;1.37;;;1.10;;
9938;SDS011;5008;50.656;7.188;2024-03-29T20:12:40;1.77;;;1.60;;
9938;SDS011;5008;50.656;7.188;2024-03-29T20:15:06;1.50;;;1.40;;
9938;SDS011;5008;50.656;7.188;2024-03-29T20:17:33;1.83;;;1.67;;
9938;SDS011;5008;50.656;7.188;2024-03-29T20:20:00;2.60;;;2.40;;
9938;SDS011;5008;50.656;7.188;2024-03-29T20:25:18;1.67;;;1.57;;
9938;SDS011;5008;50.656;7.188;2024-03-29T20:27:45;2.53;;;1.73;;